sensor_id;sensor_type;location;lat;lon;timestamp;pressure;altitude;pressure_sealevel;temperature;humidity
20942;BME280;10630;53.734;10.282;2023-04-22T00:00:33;101044.59;;;16.42;43.26
20942;BME280;10630;53.734;10.282;2023-04-22T00:03:01;101028.84;;;16.39;43.59
20942;BME280;10630;53.734;10.282;2023-04-22T00:05:29;101026.31;;;16.24;43.74
20942;BME280;10630;53.734;10.282;2023-04-22T00:07:56;101026.88;;;16.55;43.60
20942;BME280;10630;53.734;10.282;2023-04-22T00:10:22;101025.53;;;16.37;43.85
20942;BME280;10630;53.734;10.282;2023-04-22T00:12:49;101026.00;;;16.48;43.30
20942;BME280;10630;53.734;10.282;2023-04-22T00:15:16;101029.34;;;16.50;43.49
20942;BME280;10630;53.734;10.282;2023-04-22T00:17:49;101023.72;;;16.09;43.97
20942;BME280;10630;53.734;10.282;2023-04-22T00:20:16;101011.84;;;15.75;45.01
20942;BME280;10630;53.734;10.282;2023-04-22T00:22:43;100996.25;;;15.35;45.42
20942;BME280;10630;53.734;10.282;2023-04-22T00:25:09;100997.31;;;15.63;45.44
20942;BME280;10630;53.734;10.282;2023-04-22T00:27:36;100995.66;;;15.62;44.89
20942;BME280;10630;53.734;10.282;2023-04-22T00:30:03;100999.31;;;15.82;44.48
20942;BME280;10630;53.734;10.282;2023-04-22T00:32:29;100991.13;;;16.19;44.52
20942;BME280;10630;53.734;10.282;2023-04-22T00:34:56;100987.31;;;16.35;43.96
20942;BME280;10630;53.734;10.282;2023-04-22T00:37:23;100992.84;;;16.27;43.39
20942;BME280;10630;53.734;10.282;2023-04-22T00:39:50;100990.69;;;16.09;44.07
20942;BME280;10630;53.734;10.282;2023-04-22T00:42:16;100982.50;;;16.24;44.20
20942;BME280;10630;53.734;10.282;2023-04-22T00:44:43;100982.75;;;15.72;44.97
20942;BME280;10630;53.734;10.282;2023-04-22T00:47:12;100976.34;;;15.95;45.04
20942;BME280;10630;53.734;10.282;2023-04-22T00:49:42;100974.81;;;15.86;45.19
20942;BME280;10630;53.734;10.282;2023-04-22T00:52:09;100969.59;;;15.56;45.33
20942;BME280;10630;53.734;10.282;2023-04-22T00:54:36;100964.38;;;15.47;45.63
20942;BME280;10630;53.734;10.282;2023-04-22T00:57:03;100967.38;;;15.38;45.65
20942;BME280;10630;53.734;10.282;2023-04-22T00:59:30;100956.09;;;15.21;46.53
20942;BME280;10630;53.734;10.282;2023-04-22T01:01:57;100957.38;;;15.25;46.24
20942;BME280;10630;53.734;10.282;2023-04-22T01:04:25;100961.03;;;15.17;46.19
20942;BME280;10630;53.734;10.282;2023-04-22T01:06:56;100967.72;;;14.69;46.81
20942;BME280;10630;53.734;10.282;2023-04-22T01:09:22;100959.06;;;14.89;46.84
20942;BME280;10630;53.734;10.282;2023-04-22T01:11:51;100947.00;;;15.22;46.36
20942;BME280;10630;53.734;10.282;2023-04-22T01:14:18;100942.97;;;14.67;47.26
20942;BME280;10630;53.734;10.282;2023-04-22T01:16:44;100945.31;;;14.77;47.00
20942;BME280;10630;53.734;10.282;2023-04-22T01:19:12;100946.22;;;14.84;47.41
20942;BME280;10630;53.734;10.282;2023-04-22T01:21:38;100954.84;;;14.80;47.42
20942;BME280;10630;53.734;10.282;2023-04-22T01:24:06;100944.69;;;14.60;47.43
20942;BME280;10630;53.734;10.282;2023-04-22T01:26:33;100941.47;;;15.01;46.92
20942;BME280;10630;53.734;10.282;2023-04-22T01:29:00;100943.19;;;15.09;46.31
20942;BME280;10630;53.734;10.282;2023-04-22T01:31:27;100939.25;;;15.27;46.10
20942;BME280;10630;53.734;10.282;2023-04-22T01:33:54;100947.41;;;15.40;45.92
20942;BME280;10630;53.734;10.282;2023-04-22T01:36:21;100932.28;;;15.61;45.56
20942;BME280;10630;53.734;10.282;2023-04-22T01:38:47;100929.59;;;15.32;44.73
20942;BME280;10630;53.734;10.282;2023-04-22T01:41:14;100934.00;;;15.40;45.40
20942;BME280;10630;53.734;10.282;2023-04-22T01:43:41;100930.16;;;15.06;45.27
20942;BME280;10630;53.734;10.282;2023-04-22T01:46:08;100935.22;;;15.16;45.80
20942;BME280;10630;53.734;10.282;2023-04-22T01:48:35;100930.19;;;15.28;45.72
20942;BME280;10630;53.734;10.282;2023-04-22T01:51:01;100932.31;;;15.39;45.65
20942;BME280;10630;53.734;10.282;2023-04-22T01:53:28;100928.00;;;15.66;45.17
20942;BME280;10630;53.734;10.282;2023-04-22T01:55:55;100923.28;;;15.97;44.38
20942;BME280;10630;53.734;10.282;2023-04-22T01:58:22;100928.16;;;15.87;44.57
20942;BME280;10630;53.734;10.282;2023-04-22T02:00:48;100921.50;;;16.11;44.47
20942;BME280;10630;53.734;10.282;2023-04-22T02:03:15;100915.72;;;15.50;44.82
20942;BME280;10630;53.734;10.282;2023-04-22T02:05:41;100915.72;;;15.29;45.79
20942;BME280;10630;53.734;10.282;2023-04-22T02:08:08;100912.81;;;14.80;46.37
20942;BME280;10630;53.734;10.282;2023-04-22T02:10:35;100914.75;;;14.35;47.27
20942;BME280;10630;53.734;10.282;2023-04-22T02:13:02;100911.69;;;14.90;46.89
20942;BME280;10630;53.734;10.282;2023-04-22T02:15:28;100909.31;;;15.01;46.65
20942;BME280;10630;53.734;10.282;2023-04-22T02:17:55;100907.84;;;15.21;46.44
20942;BME280;10630;53.734;10.282;2023-04-22T02:20:22;100904.06;;;15.15;46.25
20942;BME280;10630;53.734;10.282;2023-04-22T02:22:48;100910.75;;;14.46;46.89
20942;BME280;10630;53.734;10.282;2023-04-22T02:25:16;100907.56;;;14.72;47.15
20942;BME280;10630;53.734;10.282;2023-04-22T02:27:43;100902.56;;;14.17;47.69
20942;BME280;10630;53.734;10.282;2023-04-22T02:30:09;100895.66;;;14.08;48.34
20942;BME280;10630;53.734;10.282;2023-04-22T02:32:36;100887.63;;;14.23;48.09
20942;BME280;10630;53.734;10.282;2023-04-22T02:35:04;100883.88;;;14.39;47.89
20942;BME280;10630;53.734;10.282;2023-04-22T02:37:30;100884.31;;;14.06;48.46
20942;BME280;10630;53.734;10.282;2023-04-22T02:39:57;100883.38;;;13.99;48.19
20942;BME280;10630;53.734;10.282;2023-04-22T02:42:23;100887.25;;;14.11;48.25
20942;BME280;10630;53.734;10.282;2023-04-22T02:44:50;100873.13;;;14.17;47.81
20942;BME280;10630;53.734;10.282;2023-04-22T02:47:16;100875.97;;;14.31;47.97
20942;BME280;10630;53.734;10.282;2023-04-22T02:49:43;100874.13;;;14.16;48.02
20942;BME280;10630;53.734;10.282;2023-04-22T02:52:10;100876.72;;;14.24;47.97
20942;BME280;10630;53.734;10.282;2023-04-22T02:54:37;100870.44;;;14.17;48.27
20942;BME280;10630;53.734;10.282;2023-04-22T02:57:03;100865.25;;;14.31;48.26
20942;BME280;10630;53.734;10.282;2023-04-22T02:59:30;100858.84;;;14.10;48.68
20942;BME280;10630;53.734;10.282;2023-04-22T03:02:16;100848.88;;;13.89;48.57
20942;BME280;10630;53.734;10.282;2023-04-22T03:04:43;100850.94;;;14.38;48.80
20942;BME280;10630;53.734;10.282;2023-04-22T03:07:10;100847.19;;;14.54;48.21
20942;BME280;10630;53.734;10.282;2023-04-22T03:09:37;100839.22;;;14.39;48.30
20942;BME280;10630;53.734;10.282;2023-04-22T03:12:04;100838.56;;;14.37;48.42
20942;BME280;10630;53.734;10.282;2023-04-22T03:14:30;100838.19;;;14.40;47.90
20942;BME280;10630;53.734;10.282;2023-04-22T03:16:58;100833.44;;;14.57;48.00
20942;BME280;10630;53.734;10.282;2023-04-22T03:19:26;100833.38;;;13.84;48.06
20942;BME280;10630;53.734;10.282;2023-04-22T03:21:53;100826.78;;;14.53;48.34
20942;BME280;10630;53.734;10.282;2023-04-22T03:24:21;100825.19;;;14.59;48.53
20942;BME280;10630;53.734;10.282;2023-04-22T03:26:56;100822.72;;;14.57;47.82
20942;BME280;10630;53.734;10.282;2023-04-22T03:29:23;100819.78;;;14.96;47.86
20942;BME280;10630;53.734;10.282;2023-04-22T03:32:07;100821.00;;;14.93;47.93
20942;BME280;10630;53.734;10.282;2023-04-22T03:34:33;100823.31;;;15.25;47.44
20942;BME280;10630;53.734;10.282;2023-04-22T03:37:02;100816.97;;;15.67;46.16
20942;BME280;10630;53.734;10.282;2023-04-22T03:39:29;100813.50;;;15.10;46.29
20942;BME280;10630;53.734;10.282;2023-04-22T03:41:58;100818.09;;;15.45;46.66
20942;BME280;10630;53.734;10.282;2023-04-22T03:44:25;100813.63;;;14.74;47.67
20942;BME280;10630;53.734;10.282;2023-04-22T03:46:54;100800.63;;;15.97;46.02
20942;BME280;10630;53.734;10.282;2023-04-22T03:49:21;100801.88;;;15.95;45.39
20942;BME280;10630;53.734;10.282;2023-04-22T03:51:48;100794.47;;;15.97;44.99
20942;BME280;10630;53.734;10.282;2023-04-22T03:54:15;100797.63;;;15.72;45.65
20942;BME280;10630;53.734;10.282;2023-04-22T03:56:43;100798.31;;;15.17;45.97
20942;BME280;10630;53.734;10.282;2023-04-22T03:59:18;100791.31;;;15.87;45.88
20942;BME280;10630;53.734;10.282;2023-04-22T04:01:45;100790.53;;;15.58;45.73
20942;BME280;10630;53.734;10.282;2023-04-22T04:06:59;100781.31;;;16.22;45.17
20942;BME280;10630;53.734;10.282;2023-04-22T04:09:27;100778.19;;;15.70;45.31
20942;BME280;10630;53.734;10.282;2023-04-22T04:11:53;100779.16;;;15.97;45.53
20942;BME280;10630;53.734;10.282;2023-04-22T04:14:25;100783.78;;;15.75;45.74
20942;BME280;10630;53.734;10.282;2023-04-22T04:16:52;100790.59;;;16.20;45.07
20942;BME280;10630;53.734;10.282;2023-04-22T04:19:19;100785.63;;;16.17;44.67
20942;BME280;10630;53.734;10.282;2023-04-22T04:21:46;100782.72;;;16.11;44.99
20942;BME280;10630;53.734;10.282;2023-04-22T04:24:13;100795.47;;;16.03;45.05
20942;BME280;10630;53.734;10.282;2023-04-22T04:26:39;100788.75;;;16.27;44.93
20942;BME280;10630;53.734;10.282;2023-04-22T04:29:09;100782.53;;;16.26;44.68
20942;BME280;10630;53.734;10.282;2023-04-22T04:31:36;100782.34;;;16.21;45.05
20942;BME280;10630;53.734;10.282;2023-04-22T04:34:03;100782.94;;;15.33;46.12
20942;BME280;10630;53.734;10.282;2023-04-22T04:36:29;100769.44;;;15.96;46.22
20942;BME280;10630;53.734;10.282;2023-04-22T04:38:59;100780.41;;;15.60;46.36
20942;BME280;10630;53.734;10.282;2023-04-22T04:41:32;100770.91;;;15.92;45.92
20942;BME280;10630;53.734;10.282;2023-04-22T04:43:58;100773.75;;;15.84;46.16
20942;BME280;10630;53.734;10.282;2023-04-22T04:46:25;100770.22;;;15.83;46.05
20942;BME280;10630;53.734;10.282;2023-04-22T04:49:01;100771.06;;;15.91;45.73
20942;BME280;10630;53.734;10.282;2023-04-22T04:51:28;100774.41;;;15.93;45.90
20942;BME280;10630;53.734;10.282;2023-04-22T04:53:59;100766.38;;;16.00;45.51
20942;BME280;10630;53.734;10.282;2023-04-22T04:56:26;100777.16;;;15.71;46.07
20942;BME280;10630;53.734;10.282;2023-04-22T04:59:00;100761.94;;;16.54;45.12
20942;BME280;10630;53.734;10.282;2023-04-22T05:01:29;100764.41;;;16.35;44.75
20942;BME280;10630;53.734;10.282;2023-04-22T05:03:59;100764.00;;;16.32;45.10
20942;BME280;10630;53.734;10.282;2023-04-22T05:06:27;100769.97;;;16.27;45.38
20942;BME280;10630;53.734;10.282;2023-04-22T05:08:54;100763.59;;;16.68;44.95
20942;BME280;10630;53.734;10.282;2023-04-22T05:11:20;100764.84;;;16.86;44.73
20942;BME280;10630;53.734;10.282;2023-04-22T05:13:49;100766.50;;;16.53;44.19
20942;BME280;10630;53.734;10.282;2023-04-22T05:16:16;100762.16;;;16.86;44.91
20942;BME280;10630;53.734;10.282;2023-04-22T05:18:42;100761.13;;;16.53;44.66
20942;BME280;10630;53.734;10.282;2023-04-22T05:21:09;100759.88;;;16.89;44.88
20942;BME280;10630;53.734;10.282;2023-04-22T05:23:36;100754.75;;;17.08;44.41
20942;BME280;10630;53.734;10.282;2023-04-22T05:26:03;100753.91;;;16.94;44.66
20942;BME280;10630;53.734;10.282;2023-04-22T05:28:29;100749.13;;;17.23;43.57
20942;BME280;10630;53.734;10.282;2023-04-22T05:30:56;100747.25;;;17.89;42.87
20942;BME280;10630;53.734;10.282;2023-04-22T05:33:23;100756.06;;;18.10;43.03
20942;BME280;10630;53.734;10.282;2023-04-22T05:35:50;100748.94;;;18.54;42.25
20942;BME280;10630;53.734;10.282;2023-04-22T05:38:17;100746.31;;;18.09;41.90
20942;BME280;10630;53.734;10.282;2023-04-22T05:40:44;100742.66;;;18.60;41.88
20942;BME280;10630;53.734;10.282;2023-04-22T05:43:11;100743.28;;;18.30;42.35
20942;BME280;10630;53.734;10.282;2023-04-22T05:45:54;100743.72;;;18.85;41.66
20942;BME280;10630;53.734;10.282;2023-04-22T05:48:21;100743.72;;;19.10;41.30
20942;BME280;10630;53.734;10.282;2023-04-22T05:50:51;100758.56;;;19.38;40.95
20942;BME280;10630;53.734;10.282;2023-04-22T05:53:17;100759.63;;;18.93;41.67
20942;BME280;10630;53.734;10.282;2023-04-22T05:55:45;100757.94;;;18.66;41.52
20942;BME280;10630;53.734;10.282;2023-04-22T05:58:12;100756.09;;;18.35;42.56
20942;BME280;10630;53.734;10.282;2023-04-22T06:00:38;100748.53;;;18.76;41.90
20942;BME280;10630;53.734;10.282;2023-04-22T06:03:05;100738.13;;;19.05;41.84
20942;BME280;10630;53.734;10.282;2023-04-22T06:05:32;100730.06;;;18.54;41.60
20942;BME280;10630;53.734;10.282;2023-04-22T06:08:15;100721.66;;;19.69;40.76
20942;BME280;10630;53.734;10.282;2023-04-22T06:10:42;100713.78;;;19.67;40.71
20942;BME280;10630;53.734;10.282;2023-04-22T06:13:09;100713.56;;;19.50;41.06
20942;BME280;10630;53.734;10.282;2023-04-22T06:15:36;100703.00;;;19.98;40.28
20942;BME280;10630;53.734;10.282;2023-04-22T06:18:04;100704.81;;;20.16;40.29
20942;BME280;10630;53.734;10.282;2023-04-22T06:20:31;100710.66;;;20.01;40.08
20942;BME280;10630;53.734;10.282;2023-04-22T06:22:58;100707.41;;;20.88;40.09
20942;BME280;10630;53.734;10.282;2023-04-22T06:25:39;100709.03;;;21.13;39.35
20942;BME280;10630;53.734;10.282;2023-04-22T06:28:08;100716.44;;;21.30;38.74
20942;BME280;10630;53.734;10.282;2023-04-22T06:33:23;100716.00;;;20.97;39.73
20942;BME280;10630;53.734;10.282;2023-04-22T06:35:50;100710.84;;;21.89;38.80
20942;BME280;10630;53.734;10.282;2023-04-22T06:38:20;100724.78;;;20.69;39.56
20942;BME280;10630;53.734;10.282;2023-04-22T06:40:47;100719.31;;;20.87;39.72
20942;BME280;10630;53.734;10.282;2023-04-22T06:43:13;100725.72;;;21.34;39.43
20942;BME280;10630;53.734;10.282;2023-04-22T06:45:54;100713.97;;;21.98;38.55
20942;BME280;10630;53.734;10.282;2023-04-22T06:48:21;100720.25;;;22.16;38.12
20942;BME280;10630;53.734;10.282;2023-04-22T06:50:49;100721.06;;;22.62;37.62
20942;BME280;10630;53.734;10.282;2023-04-22T06:53:16;100716.19;;;22.81;36.91
20942;BME280;10630;53.734;10.282;2023-04-22T06:55:43;100709.75;;;22.87;36.99
20942;BME280;10630;53.734;10.282;2023-04-22T06:58:12;100699.50;;;21.92;38.00
20942;BME280;10630;53.734;10.282;2023-04-22T07:00:41;100700.59;;;22.71;37.40
20942;BME280;10630;53.734;10.282;2023-04-22T07:03:11;100696.47;;;22.86;37.12
20942;BME280;10630;53.734;10.282;2023-04-22T07:05:39;100692.69;;;23.76;36.68
20942;BME280;10630;53.734;10.282;2023-04-22T07:08:06;100699.84;;;23.87;35.65
20942;BME280;10630;53.734;10.282;2023-04-22T07:10:33;100697.78;;;23.05;36.28
20942;BME280;10630;53.734;10.282;2023-04-22T07:15:48;100694.81;;;23.24;36.47
20942;BME280;10630;53.734;10.282;2023-04-22T07:18:15;100705.00;;;24.11;36.20
20942;BME280;10630;53.734;10.282;2023-04-22T07:20:44;100699.69;;;24.26;35.89
20942;BME280;10630;53.734;10.282;2023-04-22T07:23:13;100708.16;;;22.69;36.96
20942;BME280;10630;53.734;10.282;2023-04-22T07:25:40;100704.25;;;22.31;37.93
20942;BME280;10630;53.734;10.282;2023-04-22T07:28:07;100704.75;;;23.63;36.88
20942;BME280;10630;53.734;10.282;2023-04-22T07:30:34;100704.31;;;24.58;35.61
20942;BME280;10630;53.734;10.282;2023-04-22T07:33:01;100702.50;;;24.37;35.54
20942;BME280;10630;53.734;10.282;2023-04-22T07:35:28;100695.28;;;24.53;35.12
20942;BME280;10630;53.734;10.282;2023-04-22T07:37:57;100692.47;;;23.33;35.93
20942;BME280;10630;53.734;10.282;2023-04-22T07:40:24;100693.59;;;24.09;35.50
20942;BME280;10630;53.734;10.282;2023-04-22T07:45:38;100681.63;;;24.10;36.00
20942;BME280;10630;53.734;10.282;2023-04-22T07:48:06;100678.31;;;24.35;36.23
20942;BME280;10630;53.734;10.282;2023-04-22T07:50:34;100678.38;;;24.45;35.68
20942;BME280;10630;53.734;10.282;2023-04-22T07:53:04;100663.34;;;25.28;34.81
20942;BME280;10630;53.734;10.282;2023-04-22T07:55:32;100671.91;;;25.68;34.69
20942;BME280;10630;53.734;10.282;2023-04-22T07:58:01;100669.59;;;25.29;34.71
20942;BME280;10630;53.734;10.282;2023-04-22T08:00:32;100670.47;;;24.44;35.63
20942;BME280;10630;53.734;10.282;2023-04-22T08:03:10;100659.53;;;25.35;34.78
20942;BME280;10630;53.734;10.282;2023-04-22T08:05:39;100655.88;;;26.44;34.24
20942;BME280;10630;53.734;10.282;2023-04-22T08:08:10;100659.13;;;25.95;33.57
20942;BME280;10630;53.734;10.282;2023-04-22T08:10:37;100650.38;;;26.75;33.53
20942;BME280;10630;53.734;10.282;2023-04-22T08:13:14;100643.34;;;26.28;33.39
20942;BME280;10630;53.734;10.282;2023-04-22T08:15:46;100651.25;;;25.88;34.47
20942;BME280;10630;53.734;10.282;2023-04-22T08:18:15;100645.97;;;26.90;33.54
20942;BME280;10630;53.734;10.282;2023-04-22T08:20:42;100651.47;;;25.66;34.70
20942;BME280;10630;53.734;10.282;2023-04-22T08:23:12;100640.38;;;25.04;35.20
20942;BME280;10630;53.734;10.282;2023-04-22T08:25:42;100641.69;;;25.80;34.23
20942;BME280;10630;53.734;10.282;2023-04-22T08:28:14;100636.78;;;26.54;33.63
20942;BME280;10630;53.734;10.282;2023-04-22T08:30:45;100636.78;;;26.03;33.77
20942;BME280;10630;53.734;10.282;2023-04-22T08:33:25;100634.06;;;25.82;34.02
20942;BME280;10630;53.734;10.282;2023-04-22T08:35:52;100638.19;;;26.26;34.44
20942;BME280;10630;53.734;10.282;2023-04-22T08:38:20;100628.06;;;26.06;33.60
20942;BME280;10630;53.734;10.282;2023-04-22T08:40:47;100625.38;;;26.32;34.21
20942;BME280;10630;53.734;10.282;2023-04-22T08:43:24;100622.91;;;27.72;33.08
20942;BME280;10630;53.734;10.282;2023-04-22T08:45:52;100626.16;;;28.14;32.32
20942;BME280;10630;53.734;10.282;2023-04-22T08:48:19;100617.03;;;28.48;32.17
20942;BME280;10630;53.734;10.282;2023-04-22T08:50:45;100619.91;;;29.29;31.69
20942;BME280;10630;53.734;10.282;2023-04-22T08:53:14;100618.69;;;28.49;31.76
20942;BME280;10630;53.734;10.282;2023-04-22T08:55:43;100622.72;;;28.27;31.67
20942;BME280;10630;53.734;10.282;2023-04-22T08:58:11;100618.81;;;29.30;31.28
20942;BME280;10630;53.734;10.282;2023-04-22T09:00:41;100610.91;;;28.85;31.33
20942;BME280;10630;53.734;10.282;2023-04-22T09:03:10;100614.03;;;28.20;31.59
20942;BME280;10630;53.734;10.282;2023-04-22T09:05:39;100613.16;;;28.54;31.98
20942;BME280;10630;53.734;10.282;2023-04-22T09:08:06;100607.38;;;28.31;32.34
20942;BME280;10630;53.734;10.282;2023-04-22T09:10:37;100613.16;;;28.54;32.77
20942;BME280;10630;53.734;10.282;2023-04-22T09:13:05;100610.22;;;28.74;32.40
20942;BME280;10630;53.734;10.282;2023-04-22T09:15:32;100610.31;;;28.88;31.71
20942;BME280;10630;53.734;10.282;2023-04-22T09:18:00;100609.31;;;29.22;31.85
20942;BME280;10630;53.734;10.282;2023-04-22T09:20:40;100611.44;;;29.31;31.03
20942;BME280;10630;53.734;10.282;2023-04-22T09:23:09;100611.34;;;29.36;31.18
20942;BME280;10630;53.734;10.282;2023-04-22T09:25:38;100607.91;;;29.63;31.24
20942;BME280;10630;53.734;10.282;2023-04-22T09:28:10;100610.47;;;29.41;31.40
20942;BME280;10630;53.734;10.282;2023-04-22T09:30:39;100603.97;;;29.36;31.01
20942;BME280;10630;53.734;10.282;2023-04-22T09:33:07;100617.00;;;29.01;31.46
20942;BME280;10630;53.734;10.282;2023-04-22T09:35:38;100609.44;;;28.45;32.15
20942;BME280;10630;53.734;10.282;2023-04-22T09:38:06;100605.84;;;28.44;32.15
20942;BME280;10630;53.734;10.282;2023-04-22T09:40:34;100609.13;;;28.76;32.11
20942;BME280;10630;53.734;10.282;2023-04-22T09:43:06;100606.41;;;28.17;32.48
20942;BME280;10630;53.734;10.282;2023-04-22T09:45:42;100599.16;;;28.85;32.80
20942;BME280;10630;53.734;10.282;2023-04-22T09:48:12;100601.84;;;28.61;32.75
20942;BME280;10630;53.734;10.282;2023-04-22T09:50:41;100595.44;;;28.76;32.40
20942;BME280;10630;53.734;10.282;2023-04-22T09:53:10;100592.16;;;29.55;31.78
20942;BME280;10630;53.734;10.282;2023-04-22T09:55:41;100588.78;;;29.96;31.42
20942;BME280;10630;53.734;10.282;2023-04-22T09:58:09;100592.75;;;29.14;32.12
20942;BME280;10630;53.734;10.282;2023-04-22T10:00:40;100580.63;;;29.39;32.25
20942;BME280;10630;53.734;10.282;2023-04-22T10:03:07;100586.91;;;28.53;32.76
20942;BME280;10630;53.734;10.282;2023-04-22T10:05:40;100585.72;;;29.08;32.11
20942;BME280;10630;53.734;10.282;2023-04-22T10:08:14;100576.22;;;29.00;33.13
20942;BME280;10630;53.734;10.282;2023-04-22T10:10:52;100567.91;;;29.62;31.96
20942;BME280;10630;53.734;10.282;2023-04-22T10:13:19;100572.78;;;30.45;31.69
20942;BME280;10630;53.734;10.282;2023-04-22T10:15:47;100568.50;;;30.11;31.46
20942;BME280;10630;53.734;10.282;2023-04-22T10:18:17;100570.59;;;29.67;31.68
20942;BME280;10630;53.734;10.282;2023-04-22T10:20:46;100555.50;;;29.84;31.62
20942;BME280;10630;53.734;10.282;2023-04-22T10:23:22;100555.03;;;29.63;31.59
20942;BME280;10630;53.734;10.282;2023-04-22T10:25:52;100547.97;;;30.37;31.40
20942;BME280;10630;53.734;10.282;2023-04-22T10:28:22;100553.13;;;31.31;30.49
20942;BME280;10630;53.734;10.282;2023-04-22T10:30:50;100552.53;;;30.83;30.51
20942;BME280;10630;53.734;10.282;2023-04-22T10:41:17;100534.84;;;30.34;31.85
20942;BME280;10630;53.734;10.282;2023-04-22T10:43:54;100538.22;;;30.58;31.49
20942;BME280;10630;53.734;10.282;2023-04-22T10:49:07;100519.63;;;31.06;31.13
20942;BME280;10630;53.734;10.282;2023-04-22T10:57:08;100498.56;;;30.51;31.40
20942;BME280;10630;53.734;10.282;2023-04-22T10:59:44;100509.00;;;30.90;30.67
20942;BME280;10630;53.734;10.282;2023-04-22T11:02:15;100505.09;;;30.69;31.16
20942;BME280;10630;53.734;10.282;2023-04-22T11:04:44;100498.06;;;30.35;31.30
20942;BME280;10630;53.734;10.282;2023-04-22T11:07:14;100497.50;;;30.88;30.79
20942;BME280;10630;53.734;10.282;2023-04-22T11:10:06;100492.03;;;31.79;30.05
20942;BME280;10630;53.734;10.282;2023-04-22T11:17:34;100491.66;;;31.72;30.03
20942;BME280;10630;53.734;10.282;2023-04-22T11:20:04;100491.91;;;31.16;30.66
20942;BME280;10630;53.734;10.282;2023-04-22T11:22:42;100491.84;;;31.76;30.06
20942;BME280;10630;53.734;10.282;2023-04-22T11:25:10;100489.44;;;32.14;29.50
20942;BME280;10630;53.734;10.282;2023-04-22T11:27:44;100480.63;;;32.03;29.84
20942;BME280;10630;53.734;10.282;2023-04-22T11:30:22;100477.00;;;31.85;30.08
20942;BME280;10630;53.734;10.282;2023-04-22T11:32:50;100476.22;;;30.94;30.65
20942;BME280;10630;53.734;10.282;2023-04-22T11:37:46;100480.63;;;31.40;30.07
20942;BME280;10630;53.734;10.282;2023-04-22T11:40:15;100461.25;;;31.46;30.96
20942;BME280;10630;53.734;10.282;2023-04-22T11:42:58;100462.75;;;32.24;30.16
20942;BME280;10630;53.734;10.282;2023-04-22T11:45:28;100460.59;;;33.13;29.15
20942;BME280;10630;53.734;10.282;2023-04-22T11:48:04;100458.16;;;32.68;29.61
20942;BME280;10630;53.734;10.282;2023-04-22T11:50:32;100452.38;;;32.20;30.06
20942;BME280;10630;53.734;10.282;2023-04-22T11:53:12;100453.00;;;32.17;29.81
20942;BME280;10630;53.734;10.282;2023-04-22T11:55:48;100453.03;;;31.54;30.24
20942;BME280;10630;53.734;10.282;2023-04-22T11:58:33;100447.31;;;32.05;29.96
20942;BME280;10630;53.734;10.282;2023-04-22T12:01:04;100444.91;;;32.12;30.58
20942;BME280;10630;53.734;10.282;2023-04-22T12:03:33;100444.81;;;31.32;30.47
20942;BME280;10630;53.734;10.282;2023-04-22T12:06:02;100433.22;;;31.35;30.50
20942;BME280;10630;53.734;10.282;2023-04-22T12:08:37;100431.44;;;32.77;30.13
20942;BME280;10630;53.734;10.282;2023-04-22T12:11:11;100429.00;;;32.85;29.88
20942;BME280;10630;53.734;10.282;2023-04-22T12:18:39;100432.69;;;32.36;29.53
20942;BME280;10630;53.734;10.282;2023-04-22T12:21:07;100420.69;;;32.32;29.51
20942;BME280;10630;53.734;10.282;2023-04-22T12:23:48;100434.97;;;31.94;30.59
20942;BME280;10630;53.734;10.282;2023-04-22T12:26:22;100427.84;;;32.50;29.39
20942;BME280;10630;53.734;10.282;2023-04-22T12:28:52;100427.03;;;32.76;29.62
20942;BME280;10630;53.734;10.282;2023-04-22T12:31:22;100417.50;;;32.82;29.51
20942;BME280;10630;53.734;10.282;2023-04-22T12:33:50;100421.72;;;32.89;29.80
20942;BME280;10630;53.734;10.282;2023-04-22T12:36:18;100420.06;;;33.70;28.90
20942;BME280;10630;53.734;10.282;2023-04-22T12:38:50;100418.72;;;33.20;29.29
20942;BME280;10630;53.734;10.282;2023-04-22T12:41:17;100411.28;;;33.12;28.99
20942;BME280;10630;53.734;10.282;2023-04-22T12:43:45;100410.50;;;32.94;29.49
20942;BME280;10630;53.734;10.282;2023-04-22T12:46:15;100413.66;;;31.36;30.74
20942;BME280;10630;53.734;10.282;2023-04-22T12:48:42;100402.13;;;32.81;29.37
20942;BME280;10630;53.734;10.282;2023-04-22T12:51:11;100407.94;;;32.62;29.62
20942;BME280;10630;53.734;10.282;2023-04-22T12:53:41;100401.28;;;32.72;30.46
20942;BME280;10630;53.734;10.282;2023-04-22T12:56:10;100402.16;;;33.46;29.70
20942;BME280;10630;53.734;10.282;2023-04-22T12:58:37;100399.28;;;33.17;29.43
20942;BME280;10630;53.734;10.282;2023-04-22T13:01:17;100393.81;;;32.46;29.33
20942;BME280;10630;53.734;10.282;2023-04-22T13:03:48;100391.47;;;32.04;30.01
20942;BME280;10630;53.734;10.282;2023-04-22T13:06:18;100388.00;;;32.57;30.27
20942;BME280;10630;53.734;10.282;2023-04-22T13:08:48;100375.84;;;32.84;30.51
20942;BME280;10630;53.734;10.282;2023-04-22T13:11:23;100379.81;;;31.99;30.27
20942;BME280;10630;53.734;10.282;2023-04-22T13:13:54;100372.44;;;32.43;30.27
20942;BME280;10630;53.734;10.282;2023-04-22T13:16:21;100362.59;;;31.84;30.26
20942;BME280;10630;53.734;10.282;2023-04-22T13:18:51;100367.19;;;31.98;30.80
20942;BME280;10630;53.734;10.282;2023-04-22T13:21:18;100362.03;;;31.65;30.72
20942;BME280;10630;53.734;10.282;2023-04-22T13:23:46;100367.69;;;31.60;30.91
20942;BME280;10630;53.734;10.282;2023-04-22T13:26:13;100366.47;;;32.32;30.38
20942;BME280;10630;53.734;10.282;2023-04-22T13:28:47;100354.63;;;32.49;30.13